KELN

Bowers Field Airport

Ellensburg, Washington, USA
METAR KELN 231553Z AUTO 00000KT 10SM CLR M08/M12 A3033 RMK AO2 SLP297 T10831117
Observed Flight Rules
Feb-23 @ 15:53 UTC (46 minutes ago) Visual Flight Rules
Wind Visibility Clouds
Calm 10 miles
  • Clear skies
Temperatures Readings
Current -8°C / 18°F
Dewpoint -12°C / 10°F
Humidity 73%
Altimeter 30.33" Hg
Pressure 1029.7 hPa
Elevation 519
METAR KELN 231553Z AUTO 00000KT 10SM CLR M08/M12 A3033 RMK AO2 SLP297 T10831117
Observed Flight Rules
Feb-23 @ 15:53 UTC
(46 minutes ago)
VFR
Wind Visibility
Calm 10 miles
Clouds
  • Clear skies
Temperature Dewpoint
-8°C / 18°F -12°C / 10°F
Humidity Altimeter Pressure
73% 30.33" Hg 1029.7 hPa